Kivalina, AK

13:33 AKDT le 29 août 2016 (GMT -0800)
Noatak | | Change Station

Alt. 85 ft 67.57 °N, 162.98 °W | Updated 37 minutes ago

Clear
Ciel dégagé
59 ° F
Paraît 59 ° F
N
0
Vent Variable Vent de Nord

Aujourd'hui
Haut(e) -- | Bas -- ° F
--% Risque de précip.
Hier
Haut(e) -- | Bas -- ° F
Precip. -- pouce
Pression 30.45 pouce
Visibilité 10.0 Miles terrestres
Nuages Ciel dégagé
Point de rosée 44 ° F
Humidité 58%
Précipitations 0.00 pouce
Profondeur de la couche neigeuse Non disponible.
7:14 AM 10:33 PM
Lune descendante, 7% visible
METAR PAWN 292056Z AUTO 00000KT 10SM CLR 15/07 A3040 RMK AO2 SLP309 T01500067 58004
Pression 30.45 pouce
Visibilité 10.0 Miles terrestres
Nuages Ciel dégagé
Point de rosée 44 ° F
Humidité 58%
Précipitations 0.00 pouce
Profondeur de la couche neigeuse Non disponible.
7:14 AM 10:33 PM
Lune descendante, 7% visible
METAR PAWN 292056Z AUTO 00000KT 10SM CLR 15/07 A3040 RMK AO2 SLP309 T01500067 58004

10-Day Weather Forecast

Almanac

Astronomie

Aug. 29, 2016 Lever Coucher
Temps réel
Crépuscule civil
Crépuscule nautique
Crépuscule astronomique
Lune
Durée de lumière visible
Longueur du jour
Tomorrow will be .
, % of the Moon is Illuminated

Extrêmes aujourd'hui

State Highs State Lows

Community

WunderPhotos

Upload Photos

1,935,679 Photos téléchargées !

WunderBlog® & News

Nearby

Qualité de l'air

  Qualité de l'air Indice de la qualité de l'air Polluant
Not available.

Épaisseur de neige

Station Depth Altitude

Activité sismique

Ville Distance Mag. Time & Date
Minimum magnitude displayed is 2.5.

Températures des eaux côtières

Lieu Température

Stations

Stations météo à proximité

Emplacement de la station Température Refroidissement éolien Point de rosée Humidité Vent Precip. Alt. Mise à jour Type
                   

Watches & Warnings

There are currently no watches in effect.